Time;durP1;ratioP1;P1;durP2;ratioP2;P2;SDS_P1;SDS_P2;PMS_P1;PMS_P2;Temp;Humidity;BMP_temperature;BMP_pressure;BME280_temperature;BME280_humidity;BME280_pressure;Samples;Min_cycle;Max_cycle;Signal;HPM_P1;HPM_P2
2022/05/18 00:00:15;;;;;;;17.70;8.97;;;;;;;;;;5020140;28;20424;-71
2022/05/18 00:02:41;;;;;;;19.90;10.18;;;;;;;;;;5016465;28;20274;-71
2022/05/18 00:05:06;;;;;;;17.85;10.30;;;;;;;;;;5013810;28;20048;-71
2022/05/18 00:07:31;;;;;;;17.83;10.48;;;;;;;;;;5019404;28;20026;-71
2022/05/18 00:09:57;;;;;;;22.20;10.77;;;;;;;;;;5023475;28;20394;-71
2022/05/18 00:12:22;;;;;;;19.48;10.75;;;;;;;;;;5014926;28;20076;-71
2022/05/18 00:14:47;;;;;;;24.00;11.67;;;;;;;;;;5019904;28;20025;-71
2022/05/18 00:17:12;;;;;;;24.20;11.80;;;;;;;;;;5022335;28;20363;-72
2022/05/18 00:19:37;;;;;;;21.42;11.82;;;;;;;;;;5022772;28;20271;-71
2022/05/18 00:22:03;;;;;;;18.33;9.83;;;;;;;;;;5023173;28;20384;-72
2022/05/18 00:24:29;;;;;;;22.17;11.13;;;;;;;;;;5021629;28;20029;-71
2022/05/18 00:26:54;;;;;;;23.08;12.18;;;;;;;;;;5018479;28;20033;-71
2022/05/18 00:29:19;;;;;;;22.90;12.37;;;;;;;;;;5023386;28;20041;-71
2022/05/18 00:31:46;;;;;;;19.10;11.57;;;;;;;;;;5018502;28;20314;-71
2022/05/18 00:34:12;;;;;;;18.35;12.00;;;;;;;;;;5019264;28;20030;-72
2022/05/18 00:36:37;;;;;;;18.10;10.82;;;;;;;;;;5020527;28;20025;-71
2022/05/18 00:39:02;;;;;;;19.58;11.40;;;;;;;;;;5023853;28;20034;-72
2022/05/18 00:41:27;;;;;;;15.52;10.43;;;;;;;;;;5019993;28;20037;-71
2022/05/18 00:43:53;;;;;;;22.35;11.10;;;;;;;;;;5019636;28;20037;-70
2022/05/18 00:46:18;;;;;;;20.55;11.18;;;;;;;;;;5019404;28;20609;-70
2022/05/18 00:48:43;;;;;;;20.63;11.83;;;;;;;;;;5018667;28;20021;-70
2022/05/18 00:51:16;;;;;;;22.42;13.10;;;;;;;;;;5019683;28;20310;-71
2022/05/18 00:53:44;;;;;;;20.77;12.40;;;;;;;;;;5020022;28;20045;-70
2022/05/18 00:56:12;;;;;;;22.90;12.77;;;;;;;;;;5022792;28;20049;-70
2022/05/18 00:58:40;;;;;;;20.92;12.45;;;;;;;;;;5023381;28;20097;-70
2022/05/18 01:01:07;;;;;;;21.10;12.32;;;;;;;;;;5021331;28;20044;-70
2022/05/18 01:03:35;;;;;;;21.85;12.35;;;;;;;;;;5023538;28;20068;-70
2022/05/18 01:06:23;;;;;;;18.08;11.45;;;;;;;;;;5020844;28;20037;-70
2022/05/18 01:08:59;;;;;;;21.45;10.90;;;;;;;;;;5015510;28;20033;-70
2022/05/18 01:11:25;;;;;;;23.10;11.90;;;;;;;;;;5020559;28;20053;-70
2022/05/18 01:13:50;;;;;;;22.60;11.18;;;;;;;;;;5021072;28;20164;-70
2022/05/18 01:16:15;;;;;;;20.23;12.32;;;;;;;;;;5025484;28;20064;-70
2022/05/18 01:18:41;;;;;;;19.50;11.02;;;;;;;;;;5020597;28;20112;-70
2022/05/18 01:21:07;;;;;;;18.63;11.40;;;;;;;;;;5021384;28;20025;-70
2022/05/18 01:23:40;;;;;;;18.23;11.45;;;;;;;;;;5023925;28;20024;-70
2022/05/18 01:26:20;;;;;;;22.08;12.10;;;;;;;;;;5016431;28;20467;-70
2022/05/18 01:28:55;;;;;;;21.02;12.65;;;;;;;;;;5021666;28;20086;-70
2022/05/18 01:31:40;;;;;;;20.30;12.75;;;;;;;;;;5021129;28;20450;-70
2022/05/18 01:34:05;;;;;;;22.85;12.10;;;;;;;;;;5021053;28;20403;-70
2022/05/18 01:36:30;;;;;;;21.05;11.50;;;;;;;;;;5020055;28;20083;-70
2022/05/18 01:38:55;;;;;;;23.73;11.60;;;;;;;;;;5021926;28;20030;-70
2022/05/18 01:41:21;;;;;;;23.47;10.73;;;;;;;;;;5023508;28;20098;-70
2022/05/18 01:43:49;;;;;;;20.80;11.52;;;;;;;;;;5021841;28;20039;-70
2022/05/18 01:46:15;;;;;;;19.52;11.40;;;;;;;;;;5019376;28;20372;-70
2022/05/18 01:48:44;;;;;;;20.58;11.68;;;;;;;;;;5017719;28;20025;-70
2022/05/18 01:51:11;;;;;;;18.90;11.20;;;;;;;;;;5021183;28;20072;-70
2022/05/18 01:53:36;;;;;;;18.55;11.80;;;;;;;;;;5019536;28;20086;-70
2022/05/18 01:56:02;;;;;;;20.25;9.85;;;;;;;;;;5022321;28;20021;-70
2022/05/18 01:58:27;;;;;;;17.25;10.02;;;;;;;;;;5022973;28;20017;-70
2022/05/18 02:00:52;;;;;;;15.70;10.93;;;;;;;;;;5022039;28;20105;-70
2022/05/18 02:03:18;;;;;;;16.67;9.98;;;;;;;;;;5020038;28;20093;-70
2022/05/18 02:05:44;;;;;;;20.90;10.55;;;;;;;;;;5017384;28;20079;-70
2022/05/18 02:08:10;;;;;;;16.85;10.32;;;;;;;;;;5022480;28;20025;-70
2022/05/18 02:10:36;;;;;;;16.85;10.88;;;;;;;;;;5019733;28;20404;-70
2022/05/18 02:13:01;;;;;;;17.05;9.98;;;;;;;;;;5023786;28;20075;-70
2022/05/18 02:15:27;;;;;;;16.58;10.60;;;;;;;;;;5021710;28;20025;-71
2022/05/18 02:17:52;;;;;;;21.35;10.00;;;;;;;;;;5015960;28;20363;-70
2022/05/18 02:20:18;;;;;;;20.42;10.95;;;;;;;;;;5012151;28;20037;-70
2022/05/18 02:22:43;;;;;;;21.77;10.65;;;;;;;;;;5024857;28;20021;-70
2022/05/18 02:25:08;;;;;;;18.15;10.57;;;;;;;;;;5019270;28;20033;-70
2022/05/18 02:27:34;;;;;;;20.63;11.05;;;;;;;;;;5022547;28;20037;-70
2022/05/18 02:30:00;;;;;;;16.20;10.48;;;;;;;;;;5024153;28;20021;-70
2022/05/18 02:32:26;;;;;;;21.45;10.38;;;;;;;;;;5017781;28;20423;-70
2022/05/18 02:34:51;;;;;;;15.20;9.90;;;;;;;;;;5021150;28;20025;-70
2022/05/18 02:37:16;;;;;;;21.75;11.43;;;;;;;;;;5020812;28;20028;-71
2022/05/18 02:39:41;;;;;;;19.27;11.35;;;;;;;;;;5017683;28;20021;-70
2022/05/18 02:42:06;;;;;;;24.08;12.48;;;;;;;;;;5021237;28;20069;-70
2022/05/18 02:44:31;;;;;;;16.30;10.05;;;;;;;;;;5018254;28;20111;-70
2022/05/18 02:46:59;;;;;;;18.90;10.57;;;;;;;;;;5020057;28;20026;-70
2022/05/18 02:49:24;;;;;;;17.63;9.80;;;;;;;;;;5016355;28;20267;-70
2022/05/18 02:51:51;;;;;;;19.05;10.40;;;;;;;;;;5021435;28;20401;-70
2022/05/18 02:57:01;;;;;;;16.90;10.73;;;;;;;;;;5016342;28;20506;-70
2022/05/18 02:59:27;;;;;;;15.88;10.52;;;;;;;;;;5026829;28;20073;-70
2022/05/18 03:01:52;;;;;;;17.75;11.50;;;;;;;;;;5019537;28;20487;-70
2022/05/18 03:04:18;;;;;;;17.20;10.82;;;;;;;;;;5018325;28;20025;-70
2022/05/18 03:06:43;;;;;;;19.00;11.63;;;;;;;;;;5019674;28;20124;-70
2022/05/18 03:09:08;;;;;;;16.47;11.13;;;;;;;;;;5011455;28;20096;-70
2022/05/18 03:11:33;;;;;;;15.05;10.25;;;;;;;;;;5014274;28;20452;-70
2022/05/18 03:13:59;;;;;;;18.77;10.68;;;;;;;;;;5017959;28;20029;-70
2022/05/18 03:16:25;;;;;;;19.90;11.17;;;;;;;;;;5019503;28;20044;-70
2022/05/18 03:18:50;;;;;;;19.17;11.40;;;;;;;;;;5010519;28;20080;-70
2022/05/18 03:23:59;;;;;;;19.38;11.07;;;;;;;;;;5016365;28;20396;-71
2022/05/18 03:26:25;;;;;;;22.73;12.10;;;;;;;;;;5015588;28;20037;-70
2022/05/18 03:28:51;;;;;;;19.55;12.77;;;;;;;;;;5018102;28;20258;-70
2022/05/18 03:31:17;;;;;;;21.83;12.93;;;;;;;;;;5025975;28;20013;-70
2022/05/18 03:33:42;;;;;;;16.95;11.52;;;;;;;;;;5017604;28;20471;-70
2022/05/18 03:36:09;;;;;;;19.33;11.57;;;;;;;;;;5019179;28;20021;-71
2022/05/18 03:38:34;;;;;;;20.13;11.43;;;;;;;;;;5015260;28;20513;-71
2022/05/18 03:41:00;;;;;;;23.30;11.43;;;;;;;;;;5015743;28;20037;-70
2022/05/18 03:43:25;;;;;;;17.00;10.37;;;;;;;;;;5020507;28;20018;-71
2022/05/18 03:45:50;;;;;;;19.70;10.80;;;;;;;;;;5015820;28;20270;-71
2022/05/18 03:48:16;;;;;;;17.83;11.13;;;;;;;;;;5011279;28;20286;-71
2022/05/18 03:50:43;;;;;;;18.90;11.65;;;;;;;;;;5019097;28;20682;-71
2022/05/18 03:53:09;;;;;;;20.17;11.60;;;;;;;;;;5014237;28;20060;-70
2022/05/18 03:55:35;;;;;;;18.75;10.05;;;;;;;;;;5018346;28;20030;-71
2022/05/18 03:58:01;;;;;;;21.90;11.20;;;;;;;;;;5021994;28;20022;-71
2022/05/18 04:00:26;;;;;;;18.63;12.77;;;;;;;;;;5021725;28;20033;-71
2022/05/18 04:02:51;;;;;;;23.85;13.13;;;;;;;;;;5017548;28;20052;-71
2022/05/18 04:05:17;;;;;;;24.98;12.25;;;;;;;;;;5025507;28;20032;-71
2022/05/18 04:07:42;;;;;;;25.13;13.23;;;;;;;;;;5024679;28;20359;-71
2022/05/18 04:10:08;;;;;;;25.48;13.75;;;;;;;;;;5020875;28;20030;-71
2022/05/18 04:12:34;;;;;;;18.15;11.90;;;;;;;;;;5019227;28;20025;-71
2022/05/18 04:14:59;;;;;;;18.92;12.05;;;;;;;;;;5021022;28;20124;-71
2022/05/18 04:17:27;;;;;;;21.30;12.27;;;;;;;;;;5017675;28;20447;-72
2022/05/18 04:19:53;;;;;;;23.98;12.85;;;;;;;;;;5022129;28;20100;-72
2022/05/18 04:22:18;;;;;;;25.80;15.27;;;;;;;;;;5028107;28;20502;-72
2022/05/18 04:24:43;;;;;;;24.73;13.67;;;;;;;;;;5029125;28;20071;-72
2022/05/18 04:27:08;;;;;;;23.07;13.53;;;;;;;;;;5024397;28;20115;-72
2022/05/18 04:29:34;;;;;;;26.80;15.90;;;;;;;;;;5023443;28;20320;-72
2022/05/18 04:31:59;;;;;;;25.98;13.30;;;;;;;;;;5015255;28;20067;-72
2022/05/18 04:34:25;;;;;;;27.90;14.20;;;;;;;;;;5022744;28;20546;-72
2022/05/18 04:36:50;;;;;;;27.15;14.05;;;;;;;;;;5020281;28;20283;-72
2022/05/18 04:39:16;;;;;;;24.23;13.48;;;;;;;;;;5025565;28;20131;-72
2022/05/18 04:41:41;;;;;;;30.60;15.87;;;;;;;;;;5024626;28;20048;-72
2022/05/18 04:44:06;;;;;;;24.42;15.00;;;;;;;;;;5025022;28;20270;-71
2022/05/18 04:46:31;;;;;;;24.13;14.23;;;;;;;;;;5021277;28;20396;-72
2022/05/18 04:48:56;;;;;;;27.75;15.93;;;;;;;;;;5023656;28;20061;-72
2022/05/18 04:51:22;;;;;;;26.02;15.57;;;;;;;;;;5022662;28;20040;-72
2022/05/18 04:53:47;;;;;;;25.25;16.27;;;;;;;;;;5023197;28;20047;-69
2022/05/18 04:56:12;;;;;;;25.47;15.30;;;;;;;;;;5027521;28;20053;-68
2022/05/18 04:58:37;;;;;;;23.70;14.80;;;;;;;;;;5023275;28;20266;-68
2022/05/18 05:01:04;;;;;;;25.88;17.30;;;;;;;;;;5023981;28;20270;-70
2022/05/18 05:03:30;;;;;;;29.30;16.38;;;;;;;;;;5018248;28;20160;-69
2022/05/18 05:05:55;;;;;;;28.00;15.20;;;;;;;;;;5015760;28;20470;-72
2022/05/18 05:08:20;;;;;;;28.35;16.48;;;;;;;;;;5024166;28;20026;-71
2022/05/18 05:10:45;;;;;;;27.97;15.77;;;;;;;;;;5025839;28;20324;-73
2022/05/18 05:13:10;;;;;;;27.30;16.60;;;;;;;;;;5022260;28;20267;-70
2022/05/18 05:15:35;;;;;;;23.83;14.85;;;;;;;;;;5020078;28;20583;-71
2022/05/18 05:18:01;;;;;;;27.20;15.50;;;;;;;;;;5021370;28;20029;-71
2022/05/18 05:20:26;;;;;;;24.50;15.95;;;;;;;;;;5023060;28;20032;-71
2022/05/18 05:22:51;;;;;;;25.67;15.57;;;;;;;;;;5026686;28;20112;-71
2022/05/18 05:25:16;;;;;;;26.47;16.67;;;;;;;;;;5024754;28;20021;-70
2022/05/18 05:27:42;;;;;;;23.20;15.15;;;;;;;;;;5026738;28;20610;-70
2022/05/18 05:30:08;;;;;;;24.40;15.77;;;;;;;;;;5025801;28;20104;-72
2022/05/18 05:32:33;;;;;;;26.58;14.73;;;;;;;;;;5016403;28;20476;-71
2022/05/18 05:34:59;;;;;;;24.30;15.03;;;;;;;;;;5017003;28;20030;-72
2022/05/18 05:37:24;;;;;;;24.98;14.77;;;;;;;;;;5019481;28;20271;-71
2022/05/18 05:39:49;;;;;;;22.10;16.67;;;;;;;;;;5026458;28;20033;-74
2022/05/18 05:42:14;;;;;;;26.08;16.48;;;;;;;;;;5016752;28;20037;-71
2022/05/18 05:44:40;;;;;;;22.42;15.20;;;;;;;;;;5017461;28;20056;-71
2022/05/18 05:47:05;;;;;;;21.27;14.88;;;;;;;;;;5021933;28;20033;-70
2022/05/18 05:49:30;;;;;;;23.60;15.95;;;;;;;;;;5025442;28;20060;-71
2022/05/18 05:51:55;;;;;;;24.38;15.95;;;;;;;;;;5021625;28;20026;-70
2022/05/18 05:54:21;;;;;;;29.27;16.53;;;;;;;;;;5019193;28;20140;-73
2022/05/18 05:56:47;;;;;;;29.88;17.00;;;;;;;;;;5016501;28;20053;-74
2022/05/18 05:59:13;;;;;;;19.90;14.73;;;;;;;;;;5021566;28;20061;-72
2022/05/18 06:01:39;;;;;;;20.10;15.00;;;;;;;;;;5026362;28;20278;-72
2022/05/18 06:04:07;;;;;;;21.77;14.70;;;;;;;;;;5022573;28;20045;-72
2022/05/18 06:06:34;;;;;;;23.63;15.07;;;;;;;;;;5018677;28;20144;-72
2022/05/18 06:09:00;;;;;;;19.92;14.80;;;;;;;;;;5024233;28;20295;-71
2022/05/18 06:11:27;;;;;;;22.60;13.90;;;;;;;;;;5024912;28;20014;-74
2022/05/18 06:13:52;;;;;;;22.55;13.88;;;;;;;;;;5025554;28;20029;-70
2022/05/18 06:16:17;;;;;;;17.20;12.67;;;;;;;;;;5023346;28;20398;-72
2022/05/18 06:18:42;;;;;;;16.27;13.37;;;;;;;;;;5021247;28;20109;-72
2022/05/18 06:21:08;;;;;;;21.73;12.50;;;;;;;;;;5021743;28;20407;-71
2022/05/18 06:23:33;;;;;;;18.55;12.60;;;;;;;;;;5024796;28;20025;-71
2022/05/18 06:25:59;;;;;;;19.48;13.05;;;;;;;;;;5021390;28;20358;-71
2022/05/18 06:28:24;;;;;;;18.02;12.60;;;;;;;;;;5017593;28;20494;-71
2022/05/18 06:30:49;;;;;;;20.25;13.75;;;;;;;;;;5020986;28;20129;-72
2022/05/18 06:33:14;;;;;;;19.63;12.68;;;;;;;;;;5022742;28;20448;-70
2022/05/18 06:35:40;;;;;;;20.30;12.83;;;;;;;;;;5017875;28;20095;-71
2022/05/18 06:38:09;;;;;;;22.80;12.75;;;;;;;;;;5022870;28;20653;-72
2022/05/18 06:43:20;;;;;;;24.77;12.75;;;;;;;;;;5013529;28;20578;-69
2022/05/18 06:45:45;;;;;;;23.33;12.70;;;;;;;;;;5024273;28;20391;-71
2022/05/18 06:48:11;;;;;;;19.42;13.77;;;;;;;;;;5020156;28;20387;-71
2022/05/18 06:50:36;;;;;;;22.20;13.65;;;;;;;;;;5023764;28;20030;-72
2022/05/18 06:53:01;;;;;;;17.47;12.57;;;;;;;;;;5019644;28;20055;-74
2022/05/18 06:55:26;;;;;;;17.35;12.75;;;;;;;;;;5017321;28;20322;-72
2022/05/18 06:57:52;;;;;;;14.87;11.73;;;;;;;;;;5018409;28;20042;-71
2022/05/18 07:00:17;;;;;;;18.75;11.93;;;;;;;;;;5024327;28;20282;-72
2022/05/18 07:02:43;;;;;;;16.27;11.10;;;;;;;;;;5018928;28;20075;-72
2022/05/18 07:05:08;;;;;;;15.95;10.32;;;;;;;;;;5021226;28;20029;-72
2022/05/18 07:07:33;;;;;;;16.85;9.50;;;;;;;;;;5013707;28;20464;-72
2022/05/18 07:09:59;;;;;;;22.23;10.07;;;;;;;;;;5021849;28;20090;-72
2022/05/18 07:12:24;;;;;;;17.35;8.70;;;;;;;;;;5022361;28;20374;-72
2022/05/18 07:14:49;;;;;;;9.38;7.65;;;;;;;;;;5021976;28;20031;-72
2022/05/18 07:17:15;;;;;;;17.88;8.90;;;;;;;;;;5019026;28;20039;-72
2022/05/18 07:19:40;;;;;;;16.95;7.90;;;;;;;;;;5017666;28;20112;-72
2022/05/18 07:22:06;;;;;;;18.97;7.33;;;;;;;;;;5022231;28;20029;-72
2022/05/18 07:24:31;;;;;;;14.38;7.40;;;;;;;;;;5014819;28;20026;-72
2022/05/18 07:26:56;;;;;;;13.93;7.77;;;;;;;;;;5018036;28;20052;-72
2022/05/18 07:29:21;;;;;;;12.77;7.65;;;;;;;;;;5008538;28;20053;-72
2022/05/18 07:34:30;;;;;;;14.93;8.20;;;;;;;;;;5015506;28;20032;-73
2022/05/18 07:36:56;;;;;;;14.57;7.77;;;;;;;;;;5020846;28;20033;-72
2022/05/18 07:39:21;;;;;;;17.17;7.97;;;;;;;;;;5020558;28;20024;-72
2022/05/18 07:41:46;;;;;;;14.50;7.83;;;;;;;;;;5019778;28;20472;-72
2022/05/18 07:44:12;;;;;;;18.88;8.18;;;;;;;;;;5021456;28;20306;-70
2022/05/18 07:46:37;;;;;;;14.50;8.35;;;;;;;;;;5019349;28;20163;-70
2022/05/18 07:49:03;;;;;;;16.50;8.60;;;;;;;;;;5018744;28;20041;-72
2022/05/18 07:51:28;;;;;;;12.02;9.10;;;;;;;;;;5018296;28;20507;-72
2022/05/18 07:53:53;;;;;;;20.57;10.07;;;;;;;;;;5020197;28;20048;-71
2022/05/18 07:56:19;;;;;;;19.00;11.82;;;;;;;;;;5018949;28;20029;-70
2022/05/18 07:58:44;;;;;;;19.95;11.02;;;;;;;;;;5014004;28;20051;-70
2022/05/18 08:01:09;;;;;;;18.30;10.52;;;;;;;;;;5020395;28;20075;-71
2022/05/18 08:03:35;;;;;;;16.00;11.60;;;;;;;;;;5022304;28;20029;-71
2022/05/18 08:06:01;;;;;;;18.60;11.80;;;;;;;;;;5022069;28;20049;-70
2022/05/18 08:08:26;;;;;;;25.88;11.98;;;;;;;;;;5021857;28;20025;-71
2022/05/18 08:16:19;;;;;;;;;;;;;;;;;;5018719;28;20388;-71
2022/05/18 08:18:45;;;;;;;20.52;11.88;;;;;;;;;;5021444;28;19917;-72
2022/05/18 08:21:10;;;;;;;16.65;10.40;;;;;;;;;;5015685;28;20030;-71
2022/05/18 08:23:35;;;;;;;16.10;10.52;;;;;;;;;;5019377;28;20549;-72
2022/05/18 08:26:03;;;;;;;20.23;10.53;;;;;;;;;;5020696;28;20026;-70
2022/05/18 08:28:28;;;;;;;20.83;11.00;;;;;;;;;;5018418;28;20112;-71
2022/05/18 08:30:55;;;;;;;17.23;9.87;;;;;;;;;;5019574;28;20159;-71
2022/05/18 08:33:20;;;;;;;16.67;9.57;;;;;;;;;;5024892;28;20575;-71
2022/05/18 08:35:47;;;;;;;18.83;9.27;;;;;;;;;;5020420;28;20028;-71
2022/05/18 08:38:14;;;;;;;20.38;11.10;;;;;;;;;;5017013;28;20033;-71
2022/05/18 08:40:45;;;;;;;18.17;9.98;;;;;;;;;;5016902;28;20021;-71
2022/05/18 08:43:12;;;;;;;14.20;9.10;;;;;;;;;;5018111;28;20037;-72
2022/05/18 08:45:41;;;;;;;15.30;9.35;;;;;;;;;;5017125;28;20035;-71
2022/05/18 08:48:14;;;;;;;14.10;9.45;;;;;;;;;;5021503;28;20060;-70
2022/05/18 08:50:39;;;;;;;17.80;10.07;;;;;;;;;;5024773;28;20024;-70
2022/05/18 08:53:17;;;;;;;17.27;9.50;;;;;;;;;;5023659;28;20021;-72
2022/05/18 08:55:43;;;;;;;15.05;10.38;;;;;;;;;;5018194;28;20049;-71
2022/05/18 08:58:11;;;;;;;17.38;9.77;;;;;;;;;;5022397;28;20097;-70
2022/05/18 09:00:40;;;;;;;13.48;9.90;;;;;;;;;;5030851;28;20047;-72
2022/05/18 09:03:29;;;;;;;16.80;10.50;;;;;;;;;;5022256;28;20013;-70
2022/05/18 09:06:00;;;;;;;20.30;10.40;;;;;;;;;;5010196;28;20037;-70
2022/05/18 09:08:28;;;;;;;12.95;9.75;;;;;;;;;;5023724;28;20029;-72
2022/05/18 09:10:53;;;;;;;16.02;9.10;;;;;;;;;;5017708;28;20017;-72
2022/05/18 09:13:19;;;;;;;16.88;9.50;;;;;;;;;;5014930;28;20029;-72
2022/05/18 09:15:47;;;;;;;13.00;7.85;;;;;;;;;;5022502;28;20028;-71
2022/05/18 09:18:32;;;;;;;14.95;9.25;;;;;;;;;;5021283;28;20154;-71
2022/05/18 09:20:57;;;;;;;16.38;9.23;;;;;;;;;;5002678;28;20093;-70
2022/05/18 09:23:22;;;;;;;17.98;9.85;;;;;;;;;;5025752;28;20025;-70
2022/05/18 09:26:02;;;;;;;15.35;9.50;;;;;;;;;;5019538;28;20143;-71
2022/05/18 09:28:49;;;;;;;14.65;8.30;;;;;;;;;;5022635;28;20513;-70
2022/05/18 09:31:37;;;;;;;17.42;8.35;;;;;;;;;;5018027;28;20388;-71
2022/05/18 09:34:20;;;;;;;12.43;8.48;;;;;;;;;;5023941;28;20036;-71
2022/05/18 09:36:54;;;;;;;13.57;8.15;;;;;;;;;;5022118;28;20055;-70
2022/05/18 09:39:20;;;;;;;12.70;7.38;;;;;;;;;;5017256;28;20126;-70
2022/05/18 09:41:51;;;;;;;12.55;7.97;;;;;;;;;;5022024;28;20140;-71
2022/05/18 09:44:35;;;;;;;16.02;8.20;;;;;;;;;;5016476;28;20045;-71
2022/05/18 09:47:01;;;;;;;14.73;7.15;;;;;;;;;;5022947;28;20029;-71
2022/05/18 09:49:30;;;;;;;12.45;9.23;;;;;;;;;;5024301;28;20120;-70
2022/05/18 09:51:57;;;;;;;11.98;7.65;;;;;;;;;;5025549;28;20094;-69
2022/05/18 09:54:23;;;;;;;18.00;7.82;;;;;;;;;;5027210;28;20460;-71
2022/05/18 09:57:01;;;;;;;12.98;7.78;;;;;;;;;;5024242;28;20037;-70
2022/05/18 09:59:28;;;;;;;16.92;8.07;;;;;;;;;;5022086;28;20033;-70
2022/05/18 10:07:37;;;;;;;13.20;7.95;;;;;;;;;;5025824;28;20067;-70
2022/05/18 10:10:12;;;;;;;15.27;7.75;;;;;;;;;;5012218;28;20064;-70
2022/05/18 10:12:56;;;;;;;21.15;7.57;;;;;;;;;;5025286;28;20097;-71
2022/05/18 10:15:21;;;;;;;13.82;8.00;;;;;;;;;;5017082;28;20152;-70
2022/05/18 10:17:50;;;;;;;13.97;8.30;;;;;;;;;;5021419;28;20442;-70
2022/05/18 10:20:24;;;;;;;12.00;7.80;;;;;;;;;;5013398;28;20101;-70
2022/05/18 10:22:50;;;;;;;12.98;7.90;;;;;;;;;;5020775;28;20610;-70
2022/05/18 10:25:34;;;;;;;16.42;7.13;;;;;;;;;;5021100;28;21224;-71
2022/05/18 10:28:02;;;;;;;10.02;5.55;;;;;;;;;;5024746;28;20040;-71
2022/05/18 10:30:29;;;;;;;12.05;6.25;;;;;;;;;;5026195;28;20493;-70
2022/05/18 10:32:54;;;;;;;11.93;8.27;;;;;;;;;;5024349;28;20025;-70
2022/05/18 10:35:38;;;;;;;10.83;8.17;;;;;;;;;;5015553;28;20021;-70
2022/05/18 10:38:14;;;;;;;11.27;8.18;;;;;;;;;;5020548;28;20787;-71
2022/05/18 10:40:39;;;;;;;12.68;8.35;;;;;;;;;;5022537;28;20030;-72
2022/05/18 10:43:23;;;;;;;20.30;9.30;;;;;;;;;;5024648;28;20042;-71
2022/05/18 10:45:56;;;;;;;17.25;8.80;;;;;;;;;;5018987;28;20033;-71
2022/05/18 10:48:22;;;;;;;10.93;8.48;;;;;;;;;;5020740;28;20621;-72
2022/05/18 10:50:48;;;;;;;13.38;9.27;;;;;;;;;;5019122;28;20026;-72
2022/05/18 10:53:15;;;;;;;13.93;9.13;;;;;;;;;;5020723;28;20025;-71
2022/05/18 10:55:52;;;;;;;13.45;9.18;;;;;;;;;;5022938;28;20025;-73
2022/05/18 10:58:22;;;;;;;12.23;7.60;;;;;;;;;;5020890;28;20065;-71
2022/05/18 11:00:51;;;;;;;13.60;8.32;;;;;;;;;;5025236;28;20045;-70
2022/05/18 11:03:29;;;;;;;15.65;10.75;;;;;;;;;;5024165;28;20017;-72
2022/05/18 11:05:57;;;;;;;14.13;8.45;;;;;;;;;;5019679;28;20132;-71
2022/05/18 11:08:24;;;;;;;13.35;8.10;;;;;;;;;;5019996;28;20096;-72
2022/05/18 11:10:58;;;;;;;12.43;8.25;;;;;;;;;;5021262;28;20056;-72
2022/05/18 11:13:33;;;;;;;12.75;8.80;;;;;;;;;;5020506;28;20021;-71
2022/05/18 11:16:06;;;;;;;14.98;7.93;;;;;;;;;;5020889;28;20017;-72
2022/05/18 11:18:34;;;;;;;10.00;8.18;;;;;;;;;;5016210;28;20017;-70
2022/05/18 11:20:59;;;;;;;13.65;8.80;;;;;;;;;;5023839;28;20040;-72
2022/05/18 11:23:43;;;;;;;11.37;8.47;;;;;;;;;;5017826;28;20380;-73
2022/05/18 11:26:14;;;;;;;11.93;7.93;;;;;;;;;;5023975;28;20029;-72
2022/05/18 11:28:44;;;;;;;10.82;6.78;;;;;;;;;;5021278;28;20024;-70
2022/05/18 11:31:28;;;;;;;12.27;7.13;;;;;;;;;;5020017;28;20055;-71
2022/05/18 11:34:01;;;;;;;10.63;7.35;;;;;;;;;;5022665;28;20062;-72
2022/05/18 11:36:32;;;;;;;11.07;5.82;;;;;;;;;;5013979;28;20033;-72
2022/05/18 11:39:03;;;;;;;11.02;6.05;;;;;;;;;;5021366;28;20176;-70
2022/05/18 11:41:31;;;;;;;9.68;6.10;;;;;;;;;;5022217;28;20032;-71
2022/05/18 11:43:57;;;;;;;8.55;5.93;;;;;;;;;;5019252;28;20404;-71
2022/05/18 11:46:28;;;;;;;11.00;6.38;;;;;;;;;;5016625;28;20341;-70
2022/05/18 11:49:01;;;;;;;9.70;6.13;;;;;;;;;;5019247;28;20458;-71
2022/05/18 11:51:45;;;;;;;7.35;6.30;;;;;;;;;;5022301;28;20052;-71
2022/05/18 11:54:29;;;;;;;11.00;6.95;;;;;;;;;;5025433;28;20022;-71
2022/05/18 11:57:01;;;;;;;7.82;5.38;;;;;;;;;;5017369;28;20036;-71
2022/05/18 11:59:44;;;;;;;9.35;6.50;;;;;;;;;;5022232;28;20033;-72
2022/05/18 12:02:14;;;;;;;7.82;5.32;;;;;;;;;;5021614;28;20049;-70
2022/05/18 12:04:55;;;;;;;8.13;6.30;;;;;;;;;;5025517;28;20060;-72
2022/05/18 12:07:30;;;;;;;9.32;5.97;;;;;;;;;;5022786;28;20017;-71
2022/05/18 12:10:01;;;;;;;10.07;5.15;;;;;;;;;;5022358;28;20108;-72
2022/05/18 12:12:36;;;;;;;8.35;5.28;;;;;;;;;;5014979;28;20037;-73
2022/05/18 12:15:04;;;;;;;7.80;4.47;;;;;;;;;;5011416;28;20145;-70
2022/05/18 12:17:39;;;;;;;7.07;4.88;;;;;;;;;;5022320;28;20075;-72
2022/05/18 12:20:04;;;;;;;6.63;4.68;;;;;;;;;;5023892;28;20057;-71
2022/05/18 12:22:32;;;;;;;7.28;4.68;;;;;;;;;;5023244;28;20230;-71
2022/05/18 12:24:57;;;;;;;7.30;4.97;;;;;;;;;;5023623;28;20036;-70
2022/05/18 12:27:24;;;;;;;6.35;4.13;;;;;;;;;;5027235;28;20029;-72
2022/05/18 12:29:51;;;;;;;6.25;3.90;;;;;;;;;;5021794;28;20517;-73
2022/05/18 12:32:18;;;;;;;5.80;4.22;;;;;;;;;;5024872;28;20029;-71
2022/05/18 12:34:46;;;;;;;9.07;4.03;;;;;;;;;;5023707;28;20033;-72
2022/05/18 12:37:14;;;;;;;9.00;4.00;;;;;;;;;;5026180;28;20033;-71
2022/05/18 12:39:49;;;;;;;6.70;3.88;;;;;;;;;;5019107;28;20124;-72
2022/05/18 12:42:22;;;;;;;5.82;4.10;;;;;;;;;;5020497;28;20043;-71
2022/05/18 12:44:53;;;;;;;8.95;4.18;;;;;;;;;;5024953;28;20044;-70
2022/05/18 12:47:36;;;;;;;4.85;4.00;;;;;;;;;;5019468;28;20033;-71
2022/05/18 12:50:07;;;;;;;6.47;4.30;;;;;;;;;;5027742;28;20534;-72
2022/05/18 12:52:38;;;;;;;5.40;3.78;;;;;;;;;;5036742;28;20056;-71
2022/05/18 12:55:16;;;;;;;6.80;3.40;;;;;;;;;;5015228;28;20022;-73
2022/05/18 12:57:42;;;;;;;4.90;3.80;;;;;;;;;;5018520;28;20027;-71
2022/05/18 13:00:10;;;;;;;9.05;4.90;;;;;;;;;;5027314;28;20033;-70
2022/05/18 13:02:43;;;;;;;8.95;5.72;;;;;;;;;;5026429;28;20032;-70
2022/05/18 13:05:08;;;;;;;;;;;;;;;;;;5027961;28;20470;-72
2022/05/18 13:07:35;;;;;;;10.55;6.90;;;;;;;;;;5023650;28;20275;-72
2022/05/18 13:10:12;;;;;;;9.82;6.03;;;;;;;;;;5020507;28;20484;-71
2022/05/18 13:12:39;;;;;;;10.25;5.68;;;;;;;;;;5024989;28;20036;-71
2022/05/18 13:15:04;;;;;;;7.57;6.38;;;;;;;;;;5022287;28;20213;-72
2022/05/18 13:17:48;;;;;;;7.35;5.68;;;;;;;;;;5017062;28;20277;-71
2022/05/18 13:20:29;;;;;;;9.70;6.45;;;;;;;;;;5027277;28;20108;-71
2022/05/18 13:23:08;;;;;;;6.32;5.25;;;;;;;;;;5019583;28;20535;-71
2022/05/18 13:25:35;;;;;;;8.02;5.22;;;;;;;;;;5021530;28;20029;-72
2022/05/18 13:28:02;;;;;;;6.65;2.97;;;;;;;;;;5018996;28;20086;-70
2022/05/18 13:30:35;;;;;;;5.53;4.53;;;;;;;;;;5020234;28;20057;-72
2022/05/18 13:33:02;;;;;;;7.53;4.50;;;;;;;;;;5023523;28;20025;-71
2022/05/18 13:35:28;;;;;;;6.97;4.20;;;;;;;;;;5021546;28;20400;-71
2022/05/18 13:38:08;;;;;;;7.90;4.40;;;;;;;;;;5016110;28;20464;-71
2022/05/18 13:40:34;;;;;;;5.45;4.63;;;;;;;;;;5025701;28;20400;-71
2022/05/18 13:43:00;;;;;;;7.07;4.07;;;;;;;;;;5022206;28;20021;-70
2022/05/18 13:45:26;;;;;;;8.18;4.13;;;;;;;;;;5018985;28;20033;-72
2022/05/18 13:47:55;;;;;;;7.80;3.85;;;;;;;;;;5022076;28;20039;-71
2022/05/18 13:50:29;;;;;;;8.32;4.65;;;;;;;;;;5019231;28;20464;-71
2022/05/18 13:52:56;;;;;;;8.55;6.82;;;;;;;;;;5026591;28;20397;-72
2022/05/18 13:55:22;;;;;;;12.70;8.40;;;;;;;;;;5023737;28;20444;-72
2022/05/18 13:57:53;;;;;;;10.30;8.25;;;;;;;;;;5021362;28;20025;-71
2022/05/18 14:00:29;;;;;;;10.00;7.90;;;;;;;;;;5027048;28;20033;-71
2022/05/18 14:02:56;;;;;;;10.73;7.55;;;;;;;;;;5025417;28;20045;-71
2022/05/18 14:05:22;;;;;;;13.98;7.88;;;;;;;;;;5024916;28;20025;-70
2022/05/18 14:07:49;;;;;;;10.80;7.47;;;;;;;;;;5021637;28;20032;-71
2022/05/18 14:10:18;;;;;;;10.77;7.28;;;;;;;;;;5029050;28;20037;-71
2022/05/18 14:12:45;;;;;;;12.07;7.85;;;;;;;;;;5019861;28;20025;-71
2022/05/18 14:15:12;;;;;;;14.23;8.93;;;;;;;;;;5024932;28;20025;-72
2022/05/18 14:17:37;;;;;;;16.58;8.13;;;;;;;;;;5022309;28;20171;-72
2022/05/18 14:20:08;;;;;;;11.43;7.93;;;;;;;;;;5022049;28;20021;-70
2022/05/18 14:22:35;;;;;;;13.95;8.93;;;;;;;;;;5023225;28;20104;-71
2022/05/18 14:25:06;;;;;;;13.15;7.55;;;;;;;;;;5020881;28;20025;-71
2022/05/18 14:27:32;;;;;;;11.68;8.10;;;;;;;;;;5016504;28;20030;-71
2022/05/18 14:30:00;;;;;;;9.17;7.67;;;;;;;;;;5021911;28;20025;-71
2022/05/18 14:32:29;;;;;;;15.65;8.73;;;;;;;;;;5021251;28;20017;-73
2022/05/18 14:34:59;;;;;;;13.07;8.48;;;;;;;;;;5019290;28;20045;-71
2022/05/18 14:37:32;;;;;;;14.25;8.68;;;;;;;;;;5017967;28;20458;-71
2022/05/18 14:40:02;;;;;;;16.42;9.65;;;;;;;;;;5022275;28;20442;-70
2022/05/18 14:42:28;;;;;;;16.20;8.23;;;;;;;;;;5022230;28;20075;-72
2022/05/18 14:44:59;;;;;;;12.57;7.35;;;;;;;;;;5023734;28;20400;-71
2022/05/18 14:47:31;;;;;;;12.90;8.02;;;;;;;;;;5023683;28;20033;-71
2022/05/18 14:50:06;;;;;;;11.30;7.75;;;;;;;;;;5017909;28;20037;-72
2022/05/18 14:52:35;;;;;;;12.23;7.55;;;;;;;;;;5022006;28;20417;-74